Flight Track Log - Related Links

Times and Time Zones

All times are in EDT time to prevent confusion due to time zone crossing. See the ASQ2542 flight status page for this flight to view local times or setup timezone preferences in your user account.

Time Position Orientation Groundspeed Altitude Reporting Facility
EDT Latitude Longitude Course Direction KTS MPH feet Rate Location/Type
Wed 05:40:53 PM 27.7797 -97.5183 315° West 156 180 700  Level Houston Center
Wed 05:41:23 PM 27.7964 -97.5372 315° West 161 185 1,700 2,374 Climbing Houston Center
Wed 05:42:24 PM 27.8472 -97.5778 325° Northwest 214 246 4,300 2,260 Climbing Houston Center
Wed 05:42:40 PM 27.8506 -97.5789 344° North 216 249 4,600 1,385 Climbing Houston Center
Wed 05:43:42 PM 27.9175 -97.6172 333° Northwest 269 310 6,100 1,887 Climbing Houston Center
Wed 05:44:44 PM 27.9942 -97.6575 335° Northwest 276 318 8,500 2,208 Climbing Houston Center
Wed 05:45:47 PM 28.0344 -97.7506 296° West 294 338 10,700 1,392 Climbing Houston Center
Wed 05:46:49 PM 28.0731 -97.8394 296° West 306 352 11,400 1,065 Climbing Houston Center
Wed 05:47:51 PM 28.1156 -97.9383 296° West 331 381 12,900 1,403 Climbing Houston Center
Wed 05:48:53 PM 28.1644 -98.0356 300° West 350 403 14,300 1,258 Climbing Houston Center
Wed 05:49:55 PM 28.2894 -98.0792 343° North 393 452 15,500 1,065 Climbing Houston Center
Wed 05:50:57 PM 28.4019 -98.1122 346° North 410 472 16,500 968 Climbing Houston Center
Wed 05:51:59 PM 28.5044 -98.1400 347° North 413 475 17,500 1,161 Climbing Houston Center
Wed 05:53:01 PM 28.6408 -98.1781 346° North 417 480 18,900 1,152 Climbing Houston Center
Wed 05:54:04 PM 28.7575 -98.2117 346° North 428 493 19,900 1,008 Climbing Houston Center
Wed 05:55:06 PM 28.8811 -98.2461 346° North 424 488 21,000 1,016 Climbing Houston Center
Wed 05:56:08 PM 28.9969 -98.2781 346° North 426 490 22,000 968 Climbing Houston Center
Wed 05:57:10 PM 29.1206 -98.3128 346° North 425 489 23,000 484 Climbing Houston Center
Wed 05:58:12 PM 29.2389 -98.3464 346° North 436 502 23,000 194 Level Houston Center
Wed 05:59:14 PM 29.3722 -98.3831 347° North 457 526 23,400 677 Climbing Houston Center
Wed 06:00:16 PM 29.4942 -98.4164 347° North 453 521 24,400 864 Climbing Houston Center
Wed 06:01:19 PM 29.6147 -98.4522 346° North 452 520 25,200 720 Climbing Houston Center
Wed 06:02:21 PM 29.7522 -98.4447 North 471 542 25,900 677 Climbing Houston Center
Wed 06:03:23 PM 29.8939 -98.4225 North 478 550 26,600 629 Climbing Houston Center
Wed 06:04:25 PM 30.0269 -98.4036 North 483 556 27,200 629 Climbing Houston Center
Wed 06:05:27 PM 30.1703 -98.3814 North 483 556 27,900 387 Climbing Houston Center
Wed 06:06:29 PM 30.3050 -98.3625 North 486 559 28,000 48 Climbing Houston Center
Wed 06:07:31 PM 30.4358 -98.3439 North 501 577 28,000  Level Houston Center
Wed 06:08:34 PM 30.5808 -98.3231 North 513 590 28,000 -384 Level Houston Center
Wed 06:09:36 PM 30.7244 -98.3011 North 513 590 27,200 -968 Descending Houston Center
Wed 06:10:38 PM 30.8933 -98.2775 North 515 593 26,000 -1,063 Descending Houston Center
Wed 06:10:55 PM 30.9200 -98.2753 North 519 597 25,800 -779 Descending Fort Worth Center
Wed 06:11:55 PM 31.0600 -98.2547 North 514 592 25,000 -850 Descending Fort Worth Center
Wed 06:12:55 PM 31.2044 -98.2319 North 514 592 24,100 -500 Descending Fort Worth Center
Wed 06:13:55 PM 31.3444 -98.2064 North 514 592 24,000 -50 Descending Fort Worth Center
Wed 06:14:55 PM 31.4908 -98.1319 23° Northeast 507 583 24,000  Level Fort Worth Center
Wed 06:15:55 PM 31.6269 -98.0575 25° Northeast 518 596 24,000 -350 Level Fort Worth Center
Wed 06:16:55 PM 31.7611 -97.9850 25° Northeast 525 604 23,300 -1,835 Descending Fort Worth Center
Wed 06:17:56 PM 31.8908 -97.9125 25° Northeast 520 598 20,300 -2,750 Descending Fort Worth Center
Wed 06:18:55 PM 32.0017 -97.8494 26° Northeast 497 572 17,800 -2,824 Descending Fort Worth Center
Wed 06:19:55 PM 32.1356 -97.7764 25° Northeast 480 552 14,700 -2,750 Descending Fort Worth Center
Wed 06:20:55 PM 32.2381 -97.7203 25° Northeast 466 536 12,300 -2,050 Descending Fort Worth Center
Wed 06:21:55 PM 32.3361 -97.6617 27° Northeast 385 443 10,600 -1,550 Descending Fort Worth Center
Wed 06:22:55 PM 32.4114 -97.5981 35° Northeast 332 382 9,200 -1,750 Descending Fort Worth Center
Wed 06:23:55 PM 32.4556 -97.5144 58° Northeast 302 348 7,100 -1,750 Descending Fort Worth Center
Wed 06:24:55 PM 32.4722 -97.4306 77° East 285 328 5,700 -1,050 Descending Fort Worth Center
Wed 06:25:55 PM 32.5161 -97.3469 58° Northeast 269 310 5,000 -350 Descending Fort Worth Center
Wed 06:26:55 PM 32.5536 -97.2778 57° Northeast 269 310 5,000  Level Fort Worth Center
Wed 06:27:55 PM 32.6014 -97.1914 57° Northeast 279 321 5,000  Level Fort Worth Center
Wed 06:28:55 PM 32.6369 -97.1272 57° Northeast 271 312 5,000  Level Fort Worth Center
Wed 06:29:55 PM 32.6722 -97.0681 55° Northeast 219 252 5,000 -600 Level Fort Worth Center
Wed 06:30:55 PM 32.7158 -97.0553 14° North 173 199 3,800 -1,000 Descending Fort Worth Center
Wed 06:31:55 PM 32.7619 -97.0553 360° North 168 193 3,000 -880 Descending Fort Worth Center
Wed 06:32:10 PM 32.7833 -97.0500 12° North 156 180 2,700 -880 Descending Dallas / Fort Worth TRACON
Wed 06:33:10 PM 32.8167 -97.0500 360° North 143 165 1,900 -744 Descending Dallas / Fort Worth TRACON
Wed 06:34:11 PM 32.8500 -97.0500 360° North 131 151 1,200 -689 Descending Dallas / Fort Worth TRACON
Wed 06:36:00 PM 32.8833 -97.0333 29° Northeast  Level FlightAware Approximate
Wed 06:43:00 PM 32.8968 -97.0380 29° Northeast  Level Estimated
Wed 06:44:00 PM 32.8968 -97.0380 29° Northeast  Level Estimated

Login

Don't have an account? Register now (free) for customized features, flight alerts, and more!